sensor_id;sensor_type;location;lat;lon;timestamp;P1;durP1;ratioP1;P2;durP2;ratioP2
30818;SDS011;17546;42.674;23.284;2024-03-23T00:53:28;24.02;;;10.63;;
30818;SDS011;17546;42.674;23.284;2024-03-23T00:55:53;26.88;;;10.98;;
30818;SDS011;17546;42.674;23.284;2024-03-23T00:58:19;32.75;;;11.35;;
30818;SDS011;17546;42.674;23.284;2024-03-23T01:00:44;31.17;;;12.10;;
30818;SDS011;17546;42.674;23.284;2024-03-23T01:03:10;31.55;;;10.75;;
30818;SDS011;17546;42.674;23.284;2024-03-23T01:05:35;24.85;;;10.82;;
30818;SDS011;17546;42.674;23.284;2024-03-23T01:08:01;25.20;;;11.38;;
30818;SDS011;17546;42.674;23.284;2024-03-23T01:10:27;29.17;;;10.80;;
30818;SDS011;17546;42.674;23.284;2024-03-23T01:12:52;21.42;;;10.57;;
30818;SDS011;17546;42.674;23.284;2024-03-23T01:15:18;24.83;;;10.43;;
30818;SDS011;17546;42.674;23.284;2024-03-23T01:17:43;32.72;;;10.57;;
30818;SDS011;17546;42.674;23.284;2024-03-23T01:20:09;27.05;;;10.30;;
30818;SDS011;17546;42.674;23.284;2024-03-23T01:22:35;27.75;;;10.55;;
30818;SDS011;17546;42.674;23.284;2024-03-23T01:25:01;33.97;;;10.98;;
30818;SDS011;17546;42.674;23.284;2024-03-23T01:27:26;30.42;;;9.82;;
30818;SDS011;17546;42.674;23.284;2024-03-23T01:29:52;34.22;;;10.85;;
30818;SDS011;17546;42.674;23.284;2024-03-23T01:32:17;25.60;;;9.30;;
30818;SDS011;17546;42.674;23.284;2024-03-23T01:34:43;27.88;;;9.57;;
30818;SDS011;17546;42.674;23.284;2024-03-23T01:37:09;25.92;;;10.23;;
30818;SDS011;17546;42.674;23.284;2024-03-23T01:39:35;22.45;;;9.80;;
30818;SDS011;17546;42.674;23.284;2024-03-23T01:42:00;20.95;;;9.18;;
30818;SDS011;17546;42.674;23.284;2024-03-23T01:44:26;28.35;;;9.23;;
30818;SDS011;17546;42.674;23.284;2024-03-23T01:46:51;19.70;;;9.38;;
30818;SDS011;17546;42.674;23.284;2024-03-23T01:49:17;19.90;;;9.15;;
30818;SDS011;17546;42.674;23.284;2024-03-23T01:51:42;22.02;;;9.45;;
30818;SDS011;17546;42.674;23.284;2024-03-23T01:54:09;19.45;;;8.15;;
30818;SDS011;17546;42.674;23.284;2024-03-23T01:56:35;20.50;;;9.00;;
30818;SDS011;17546;42.674;23.284;2024-03-23T01:59:04;20.65;;;9.15;;
30818;SDS011;17546;42.674;23.284;2024-03-23T02:01:31;23.45;;;10.95;;
30818;SDS011;17546;42.674;23.284;2024-03-23T02:03:57;23.75;;;9.75;;
30818;SDS011;17546;42.674;23.284;2024-03-23T02:06:26;33.58;;;11.18;;
30818;SDS011;17546;42.674;23.284;2024-03-23T02:08:52;26.35;;;12.27;;
30818;SDS011;17546;42.674;23.284;2024-03-23T02:11:21;31.92;;;13.35;;
30818;SDS011;17546;42.674;23.284;2024-03-23T02:13:47;32.88;;;13.13;;
30818;SDS011;17546;42.674;23.284;2024-03-23T02:16:12;32.53;;;13.30;;
30818;SDS011;17546;42.674;23.284;2024-03-23T02:18:41;30.40;;;13.70;;
30818;SDS011;17546;42.674;23.284;2024-03-23T02:21:06;33.30;;;14.18;;
30818;SDS011;17546;42.674;23.284;2024-03-23T02:23:32;33.92;;;15.45;;
30818;SDS011;17546;42.674;23.284;2024-03-23T02:25:57;35.50;;;14.98;;
30818;SDS011;17546;42.674;23.284;2024-03-23T02:28:23;45.75;;;16.60;;
30818;SDS011;17546;42.674;23.284;2024-03-23T02:30:49;42.42;;;17.05;;
30818;SDS011;17546;42.674;23.284;2024-03-23T02:33:14;50.17;;;16.83;;
30818;SDS011;17546;42.674;23.284;2024-03-23T02:35:40;42.75;;;16.98;;
30818;SDS011;17546;42.674;23.284;2024-03-23T02:38:06;42.75;;;17.67;;
30818;SDS011;17546;42.674;23.284;2024-03-23T02:40:31;38.33;;;17.77;;
30818;SDS011;17546;42.674;23.284;2024-03-23T02:42:56;40.55;;;17.13;;
30818;SDS011;17546;42.674;23.284;2024-03-23T02:45:22;39.05;;;17.45;;
30818;SDS011;17546;42.674;23.284;2024-03-23T02:47:47;40.92;;;17.30;;
30818;SDS011;17546;42.674;23.284;2024-03-23T02:50:17;41.28;;;17.73;;
30818;SDS011;17546;42.674;23.284;2024-03-23T02:52:45;43.95;;;16.50;;
30818;SDS011;17546;42.674;23.284;2024-03-23T02:55:11;38.78;;;15.88;;
30818;SDS011;17546;42.674;23.284;2024-03-23T02:57:36;39.42;;;16.77;;
30818;SDS011;17546;42.674;23.284;2024-03-23T03:00:02;34.58;;;14.75;;
30818;SDS011;17546;42.674;23.284;2024-03-23T03:02:28;33.90;;;14.43;;
30818;SDS011;17546;42.674;23.284;2024-03-23T03:04:53;29.25;;;14.27;;
30818;SDS011;17546;42.674;23.284;2024-03-23T03:07:19;32.13;;;14.32;;
30818;SDS011;17546;42.674;23.284;2024-03-23T03:09:44;34.10;;;15.88;;
30818;SDS011;17546;42.674;23.284;2024-03-23T03:12:10;35.05;;;15.02;;
30818;SDS011;17546;42.674;23.284;2024-03-23T03:14:36;34.53;;;16.73;;
30818;SDS011;17546;42.674;23.284;2024-03-23T03:17:01;39.78;;;15.60;;
30818;SDS011;17546;42.674;23.284;2024-03-23T03:19:27;39.70;;;15.30;;
30818;SDS011;17546;42.674;23.284;2024-03-23T03:21:53;34.95;;;15.80;;
30818;SDS011;17546;42.674;23.284;2024-03-23T03:24:18;39.90;;;14.82;;
30818;SDS011;17546;42.674;23.284;2024-03-23T03:26:44;35.88;;;13.85;;
30818;SDS011;17546;42.674;23.284;2024-03-23T03:29:09;36.50;;;15.00;;
30818;SDS011;17546;42.674;23.284;2024-03-23T03:31:36;38.92;;;14.88;;
30818;SDS011;17546;42.674;23.284;2024-03-23T03:34:02;28.50;;;13.02;;
30818;SDS011;17546;42.674;23.284;2024-03-23T03:36:28;28.42;;;13.75;;
30818;SDS011;17546;42.674;23.284;2024-03-23T03:38:53;32.25;;;13.18;;
30818;SDS011;17546;42.674;23.284;2024-03-23T03:41:19;28.27;;;13.55;;
30818;SDS011;17546;42.674;23.284;2024-03-23T03:43:45;23.42;;;11.88;;
30818;SDS011;17546;42.674;23.284;2024-03-23T03:46:10;26.98;;;12.60;;
30818;SDS011;17546;42.674;23.284;2024-03-23T03:48:36;29.65;;;13.65;;
30818;SDS011;17546;42.674;23.284;2024-03-23T03:51:02;28.92;;;13.02;;
30818;SDS011;17546;42.674;23.284;2024-03-23T03:53:28;20.58;;;11.32;;
30818;SDS011;17546;42.674;23.284;2024-03-23T03:55:53;26.13;;;11.30;;
30818;SDS011;17546;42.674;23.284;2024-03-23T03:58:19;21.05;;;11.13;;
30818;SDS011;17546;42.674;23.284;2024-03-23T04:00:44;23.38;;;11.05;;
30818;SDS011;17546;42.674;23.284;2024-03-23T04:03:10;22.05;;;11.25;;
30818;SDS011;17546;42.674;23.284;2024-03-23T04:05:35;23.95;;;11.40;;
30818;SDS011;17546;42.674;23.284;2024-03-23T04:08:01;26.58;;;13.10;;
30818;SDS011;17546;42.674;23.284;2024-03-23T04:10:26;31.83;;;13.75;;
30818;SDS011;17546;42.674;23.284;2024-03-23T04:12:52;29.23;;;13.48;;
30818;SDS011;17546;42.674;23.284;2024-03-23T04:15:19;25.98;;;13.02;;
30818;SDS011;17546;42.674;23.284;2024-03-23T04:17:45;30.38;;;14.57;;
30818;SDS011;17546;42.674;23.284;2024-03-23T04:20:11;28.70;;;14.70;;
30818;SDS011;17546;42.674;23.284;2024-03-23T04:22:39;38.97;;;14.23;;
30818;SDS011;17546;42.674;23.284;2024-03-23T04:25:05;36.90;;;14.10;;
30818;SDS011;17546;42.674;23.284;2024-03-23T04:27:38;37.80;;;13.27;;
30818;SDS011;17546;42.674;23.284;2024-03-23T04:30:05;33.30;;;13.48;;
30818;SDS011;17546;42.674;23.284;2024-03-23T04:32:35;37.13;;;14.38;;
30818;SDS011;17546;42.674;23.284;2024-03-23T04:35:01;35.40;;;13.85;;
30818;SDS011;17546;42.674;23.284;2024-03-23T04:37:28;35.78;;;13.73;;
30818;SDS011;17546;42.674;23.284;2024-03-23T04:39:54;24.23;;;12.82;;
30818;SDS011;17546;42.674;23.284;2024-03-23T04:42:19;27.48;;;14.45;;
30818;SDS011;17546;42.674;23.284;2024-03-23T04:44:45;28.38;;;13.13;;
30818;SDS011;17546;42.674;23.284;2024-03-23T04:47:10;24.92;;;12.18;;
30818;SDS011;17546;42.674;23.284;2024-03-23T04:49:36;23.42;;;12.30;;
30818;SDS011;17546;42.674;23.284;2024-03-23T04:52:03;25.23;;;12.82;;
30818;SDS011;17546;42.674;23.284;2024-03-23T04:54:29;35.35;;;13.63;;
30818;SDS011;17546;42.674;23.284;2024-03-23T04:56:55;36.92;;;14.30;;
30818;SDS011;17546;42.674;23.284;2024-03-23T04:59:21;32.40;;;11.98;;
30818;SDS011;17546;42.674;23.284;2024-03-23T05:01:46;36.17;;;13.45;;
30818;SDS011;17546;42.674;23.284;2024-03-23T05:04:12;29.55;;;13.63;;
30818;SDS011;17546;42.674;23.284;2024-03-23T05:06:38;39.83;;;14.48;;
30818;SDS011;17546;42.674;23.284;2024-03-23T05:09:03;36.03;;;14.05;;
30818;SDS011;17546;42.674;23.284;2024-03-23T05:11:32;28.83;;;13.77;;
30818;SDS011;17546;42.674;23.284;2024-03-23T05:13:58;27.70;;;14.07;;
30818;SDS011;17546;42.674;23.284;2024-03-23T05:16:24;30.27;;;13.45;;
30818;SDS011;17546;42.674;23.284;2024-03-23T05:18:51;29.50;;;13.10;;
30818;SDS011;17546;42.674;23.284;2024-03-23T05:21:17;31.92;;;13.50;;
30818;SDS011;17546;42.674;23.284;2024-03-23T05:23:42;33.72;;;13.23;;
30818;SDS011;17546;42.674;23.284;2024-03-23T05:26:08;26.70;;;12.63;;
30818;SDS011;17546;42.674;23.284;2024-03-23T05:28:34;29.65;;;13.20;;
30818;SDS011;17546;42.674;23.284;2024-03-23T05:31:00;33.78;;;13.27;;
30818;SDS011;17546;42.674;23.284;2024-03-23T05:33:25;34.83;;;13.55;;
30818;SDS011;17546;42.674;23.284;2024-03-23T05:35:57;29.20;;;12.90;;
30818;SDS011;17546;42.674;23.284;2024-03-23T05:38:24;36.67;;;14.52;;
30818;SDS011;17546;42.674;23.284;2024-03-23T05:40:54;47.08;;;14.15;;
30818;SDS011;17546;42.674;23.284;2024-03-23T05:43:23;45.13;;;14.65;;
30818;SDS011;17546;42.674;23.284;2024-03-23T05:45:59;41.90;;;14.45;;
30818;SDS011;17546;42.674;23.284;2024-03-23T05:48:26;35.38;;;14.80;;
30818;SDS011;17546;42.674;23.284;2024-03-23T05:50:52;33.55;;;14.57;;
30818;SDS011;17546;42.674;23.284;2024-03-23T05:53:19;36.97;;;15.13;;
30818;SDS011;17546;42.674;23.284;2024-03-23T05:55:47;34.15;;;15.25;;
30818;SDS011;17546;42.674;23.284;2024-03-23T05:58:14;36.28;;;14.95;;
30818;SDS011;17546;42.674;23.284;2024-03-23T06:00:41;32.83;;;14.73;;
30818;SDS011;17546;42.674;23.284;2024-03-23T06:03:07;36.28;;;14.98;;
30818;SDS011;17546;42.674;23.284;2024-03-23T06:05:33;40.38;;;15.38;;
30818;SDS011;17546;42.674;23.284;2024-03-23T06:07:59;32.33;;;15.02;;
30818;SDS011;17546;42.674;23.284;2024-03-23T06:10:24;32.38;;;15.05;;
30818;SDS011;17546;42.674;23.284;2024-03-23T06:12:50;29.92;;;14.57;;
30818;SDS011;17546;42.674;23.284;2024-03-23T06:15:17;30.38;;;14.52;;
30818;SDS011;17546;42.674;23.284;2024-03-23T06:17:44;33.35;;;14.77;;
30818;SDS011;17546;42.674;23.284;2024-03-23T06:20:10;33.03;;;14.68;;
30818;SDS011;17546;42.674;23.284;2024-03-23T06:22:36;44.42;;;14.88;;
30818;SDS011;17546;42.674;23.284;2024-03-23T06:25:02;32.55;;;14.57;;
30818;SDS011;17546;42.674;23.284;2024-03-23T06:27:28;33.97;;;14.80;;
30818;SDS011;17546;42.674;23.284;2024-03-23T06:29:54;32.85;;;14.65;;
30818;SDS011;17546;42.674;23.284;2024-03-23T06:32:20;36.35;;;15.20;;
30818;SDS011;17546;42.674;23.284;2024-03-23T06:34:45;31.17;;;15.55;;
30818;SDS011;17546;42.674;23.284;2024-03-23T06:37:11;32.90;;;16.15;;
30818;SDS011;17546;42.674;23.284;2024-03-23T06:39:37;36.47;;;16.63;;
30818;SDS011;17546;42.674;23.284;2024-03-23T06:42:03;45.75;;;14.85;;
30818;SDS011;17546;42.674;23.284;2024-03-23T06:44:30;32.33;;;15.00;;
30818;SDS011;17546;42.674;23.284;2024-03-23T06:46:56;35.03;;;15.82;;
30818;SDS011;17546;42.674;23.284;2024-03-23T06:49:22;31.40;;;15.10;;
30818;SDS011;17546;42.674;23.284;2024-03-23T06:51:48;37.33;;;15.15;;
30818;SDS011;17546;42.674;23.284;2024-03-23T06:54:14;29.08;;;15.70;;
30818;SDS011;17546;42.674;23.284;2024-03-23T06:56:43;31.13;;;13.70;;
30818;SDS011;17546;42.674;23.284;2024-03-23T06:59:09;31.60;;;14.10;;
30818;SDS011;17546;42.674;23.284;2024-03-23T07:01:35;28.20;;;13.60;;
30818;SDS011;17546;42.674;23.284;2024-03-23T07:04:00;30.67;;;13.10;;
30818;SDS011;17546;42.674;23.284;2024-03-23T07:06:26;28.95;;;13.00;;
30818;SDS011;17546;42.674;23.284;2024-03-23T07:08:54;31.02;;;13.27;;
30818;SDS011;17546;42.674;23.284;2024-03-23T07:11:20;30.50;;;14.13;;
30818;SDS011;17546;42.674;23.284;2024-03-23T07:13:46;31.67;;;14.18;;
30818;SDS011;17546;42.674;23.284;2024-03-23T07:16:15;32.35;;;13.95;;
30818;SDS011;17546;42.674;23.284;2024-03-23T07:18:41;34.30;;;14.57;;
30818;SDS011;17546;42.674;23.284;2024-03-23T07:21:06;42.63;;;14.65;;
30818;SDS011;17546;42.674;23.284;2024-03-23T07:23:32;33.28;;;13.98;;
30818;SDS011;17546;42.674;23.284;2024-03-23T07:25:59;32.33;;;14.07;;
30818;SDS011;17546;42.674;23.284;2024-03-23T07:28:25;34.50;;;15.38;;
30818;SDS011;17546;42.674;23.284;2024-03-23T07:33:31;35.00;;;15.13;;
30818;SDS011;17546;42.674;23.284;2024-03-23T07:35:57;33.38;;;14.68;;
30818;SDS011;17546;42.674;23.284;2024-03-23T07:38:25;29.25;;;13.80;;
30818;SDS011;17546;42.674;23.284;2024-03-23T07:40:52;28.30;;;14.18;;
30818;SDS011;17546;42.674;23.284;2024-03-23T07:43:21;30.38;;;13.52;;
30818;SDS011;17546;42.674;23.284;2024-03-23T07:45:53;31.55;;;13.60;;
30818;SDS011;17546;42.674;23.284;2024-03-23T07:48:20;58.00;;;15.43;;
30818;SDS011;17546;42.674;23.284;2024-03-23T07:50:55;36.67;;;15.10;;
30818;SDS011;17546;42.674;23.284;2024-03-23T07:53:42;39.15;;;14.93;;
30818;SDS011;17546;42.674;23.284;2024-03-23T07:56:09;33.72;;;13.95;;
30818;SDS011;17546;42.674;23.284;2024-03-23T07:58:35;35.63;;;15.10;;
30818;SDS011;17546;42.674;23.284;2024-03-23T08:01:11;29.20;;;14.45;;
30818;SDS011;17546;42.674;23.284;2024-03-23T08:03:38;35.08;;;14.30;;
30818;SDS011;17546;42.674;23.284;2024-03-23T08:08:45;31.50;;;14.90;;
30818;SDS011;17546;42.674;23.284;2024-03-23T08:11:12;42.47;;;15.35;;
30818;SDS011;17546;42.674;23.284;2024-03-23T08:13:39;32.10;;;14.30;;
30818;SDS011;17546;42.674;23.284;2024-03-23T08:16:05;31.38;;;14.68;;
30818;SDS011;17546;42.674;23.284;2024-03-23T08:18:31;31.42;;;15.32;;
30818;SDS011;17546;42.674;23.284;2024-03-23T08:21:00;39.25;;;17.13;;
30818;SDS011;17546;42.674;23.284;2024-03-23T08:23:34;36.00;;;15.32;;
30818;SDS011;17546;42.674;23.284;2024-03-23T08:26:09;34.50;;;13.00;;
30818;SDS011;17546;42.674;23.284;2024-03-23T08:28:36;28.38;;;13.35;;
30818;SDS011;17546;42.674;23.284;2024-03-23T08:31:07;30.30;;;13.23;;
30818;SDS011;17546;42.674;23.284;2024-03-23T08:33:34;33.63;;;14.73;;
30818;SDS011;17546;42.674;23.284;2024-03-23T08:36:00;37.63;;;13.68;;
30818;SDS011;17546;42.674;23.284;2024-03-23T08:38:28;42.08;;;13.50;;
30818;SDS011;17546;42.674;23.284;2024-03-23T08:41:00;34.20;;;13.88;;
30818;SDS011;17546;42.674;23.284;2024-03-23T08:43:31;34.33;;;14.15;;
30818;SDS011;17546;42.674;23.284;2024-03-23T08:46:07;37.10;;;14.02;;
30818;SDS011;17546;42.674;23.284;2024-03-23T08:48:34;23.65;;;13.25;;
30818;SDS011;17546;42.674;23.284;2024-03-23T08:53:29;28.75;;;13.98;;
30818;SDS011;17546;42.674;23.284;2024-03-23T08:55:56;32.83;;;13.73;;
30818;SDS011;17546;42.674;23.284;2024-03-23T08:58:23;31.98;;;13.40;;
30818;SDS011;17546;42.674;23.284;2024-03-23T09:00:49;27.25;;;12.88;;
30818;SDS011;17546;42.674;23.284;2024-03-23T09:03:20;29.98;;;13.13;;
30818;SDS011;17546;42.674;23.284;2024-03-23T09:05:46;34.95;;;13.30;;
30818;SDS011;17546;42.674;23.284;2024-03-23T09:08:12;24.40;;;13.20;;
30818;SDS011;17546;42.674;23.284;2024-03-23T09:10:40;26.42;;;13.00;;
30818;SDS011;17546;42.674;23.284;2024-03-23T09:13:06;35.10;;;12.90;;
30818;SDS011;17546;42.674;23.284;2024-03-23T09:25:53;26.95;;;13.40;;
30818;SDS011;17546;42.674;23.284;2024-03-23T09:28:18;26.95;;;13.63;;
30818;SDS011;17546;42.674;23.284;2024-03-23T09:30:44;36.25;;;12.88;;
30818;SDS011;17546;42.674;23.284;2024-03-23T09:33:10;38.85;;;12.98;;
30818;SDS011;17546;42.674;23.284;2024-03-23T09:38:05;29.40;;;13.25;;
30818;SDS011;17546;42.674;23.284;2024-03-23T09:40:32;31.20;;;15.02;;
30818;SDS011;17546;42.674;23.284;2024-03-23T09:42:59;32.65;;;15.38;;
30818;SDS011;17546;42.674;23.284;2024-03-23T09:45:28;37.00;;;16.85;;
30818;SDS011;17546;42.674;23.284;2024-03-23T09:47:54;30.30;;;14.10;;
30818;SDS011;17546;42.674;23.284;2024-03-23T09:50:20;31.00;;;13.60;;
30818;SDS011;17546;42.674;23.284;2024-03-23T09:52:46;28.45;;;12.27;;
30818;SDS011;17546;42.674;23.284;2024-03-23T09:55:12;30.15;;;12.90;;
30818;SDS011;17546;42.674;23.284;2024-03-23T09:57:39;22.65;;;12.23;;
30818;SDS011;17546;42.674;23.284;2024-03-23T10:00:05;24.77;;;12.73;;
30818;SDS011;17546;42.674;23.284;2024-03-23T10:02:31;29.85;;;13.07;;
30818;SDS011;17546;42.674;23.284;2024-03-23T10:04:57;32.22;;;12.88;;
30818;SDS011;17546;42.674;23.284;2024-03-23T10:07:23;21.83;;;12.40;;
30818;SDS011;17546;42.674;23.284;2024-03-23T10:09:48;36.75;;;12.82;;
30818;SDS011;17546;42.674;23.284;2024-03-23T10:12:17;25.35;;;12.15;;
30818;SDS011;17546;42.674;23.284;2024-03-23T10:14:44;21.50;;;11.45;;
30818;SDS011;17546;42.674;23.284;2024-03-23T10:17:20;23.13;;;11.30;;
30818;SDS011;17546;42.674;23.284;2024-03-23T10:19:49;28.90;;;12.05;;
30818;SDS011;17546;42.674;23.284;2024-03-23T10:22:22;31.33;;;11.02;;
30818;SDS011;17546;42.674;23.284;2024-03-23T10:24:49;28.80;;;11.38;;
30818;SDS011;17546;42.674;23.284;2024-03-23T10:27:16;19.65;;;10.35;;
30818;SDS011;17546;42.674;23.284;2024-03-23T10:29:44;30.15;;;12.45;;
30818;SDS011;17546;42.674;23.284;2024-03-23T10:32:13;29.27;;;10.65;;
30818;SDS011;17546;42.674;23.284;2024-03-23T10:34:40;31.70;;;10.63;;
30818;SDS011;17546;42.674;23.284;2024-03-23T10:37:06;22.90;;;10.48;;
30818;SDS011;17546;42.674;23.284;2024-03-23T10:39:33;19.90;;;9.60;;
30818;SDS011;17546;42.674;23.284;2024-03-23T10:42:03;21.27;;;10.55;;
30818;SDS011;17546;42.674;23.284;2024-03-23T10:44:30;30.85;;;10.10;;
30818;SDS011;17546;42.674;23.284;2024-03-23T10:46:59;20.38;;;10.18;;
30818;SDS011;17546;42.674;23.284;2024-03-23T10:49:30;22.58;;;10.80;;
30818;SDS011;17546;42.674;23.284;2024-03-23T10:51:58;20.50;;;9.63;;
30818;SDS011;17546;42.674;23.284;2024-03-23T10:54:25;34.00;;;10.23;;
30818;SDS011;17546;42.674;23.284;2024-03-23T10:56:59;22.05;;;9.35;;
30818;SDS011;17546;42.674;23.284;2024-03-23T10:59:29;25.52;;;10.10;;
30818;SDS011;17546;42.674;23.284;2024-03-23T11:01:56;25.58;;;9.38;;
30818;SDS011;17546;42.674;23.284;2024-03-23T11:09:50;20.45;;;8.73;;
30818;SDS011;17546;42.674;23.284;2024-03-23T11:14:49;20.60;;;9.60;;
30818;SDS011;17546;42.674;23.284;2024-03-23T11:17:19;19.73;;;9.43;;
30818;SDS011;17546;42.674;23.284;2024-03-23T11:20:02;28.95;;;9.98;;
30818;SDS011;17546;42.674;23.284;2024-03-23T11:25:03;22.63;;;9.57;;
30818;SDS011;17546;42.674;23.284;2024-03-23T11:27:37;32.80;;;9.48;;
30818;SDS011;17546;42.674;23.284;2024-03-23T11:30:36;27.83;;;9.63;;
30818;SDS011;17546;42.674;23.284;2024-03-23T11:32:55;18.92;;;8.75;;
30818;SDS011;17546;42.674;23.284;2024-03-23T11:40:35;20.05;;;8.60;;
30818;SDS011;17546;42.674;23.284;2024-03-23T11:43:05;20.30;;;9.07;;
30818;SDS011;17546;42.674;23.284;2024-03-23T11:45:35;20.77;;;7.80;;
30818;SDS011;17546;42.674;23.284;2024-03-23T11:48:06;23.13;;;8.23;;
30818;SDS011;17546;42.674;23.284;2024-03-23T11:50:34;29.42;;;9.20;;
30818;SDS011;17546;42.674;23.284;2024-03-23T11:55:39;29.10;;;8.57;;
30818;SDS011;17546;42.674;23.284;2024-03-23T11:58:21;17.45;;;6.30;;
30818;SDS011;17546;42.674;23.284;2024-03-23T12:03:29;7.18;;;3.50;;
30818;SDS011;17546;42.674;23.284;2024-03-23T12:05:58;5.03;;;2.67;;
30818;SDS011;17546;42.674;23.284;2024-03-23T12:08:45;7.22;;;2.70;;
30818;SDS011;17546;42.674;23.284;2024-03-23T12:13:40;5.55;;;2.30;;
30818;SDS011;17546;42.674;23.284;2024-03-23T12:18:42;5.18;;;2.10;;
30818;SDS011;17546;42.674;23.284;2024-03-23T12:21:08;4.57;;;1.75;;
30818;SDS011;17546;42.674;23.284;2024-03-23T12:23:34;3.92;;;1.90;;
30818;SDS011;17546;42.674;23.284;2024-03-23T12:26:00;6.45;;;2.00;;
30818;SDS011;17546;42.674;23.284;2024-03-23T12:28:26;3.05;;;1.60;;
30818;SDS011;17546;42.674;23.284;2024-03-23T12:30:52;4.63;;;1.63;;
30818;SDS011;17546;42.674;23.284;2024-03-23T12:33:19;2.83;;;1.65;;
30818;SDS011;17546;42.674;23.284;2024-03-23T12:35:45;3.90;;;1.27;;
30818;SDS011;17546;42.674;23.284;2024-03-23T12:38:10;9.52;;;1.70;;
30818;SDS011;17546;42.674;23.284;2024-03-23T12:40:35;3.42;;;1.25;;
30818;SDS011;17546;42.674;23.284;2024-03-23T12:43:01;11.77;;;2.28;;
30818;SDS011;17546;42.674;23.284;2024-03-23T12:45:26;11.63;;;1.70;;
30818;SDS011;17546;42.674;23.284;2024-03-23T12:47:52;12.13;;;2.08;;
30818;SDS011;17546;42.674;23.284;2024-03-23T12:50:19;12.68;;;1.90;;
30818;SDS011;17546;42.674;23.284;2024-03-23T12:52:44;40.65;;;2.67;;
30818;SDS011;17546;42.674;23.284;2024-03-23T12:55:10;28.35;;;3.78;;
30818;SDS011;17546;42.674;23.284;2024-03-23T12:57:35;14.98;;;3.47;;
30818;SDS011;17546;42.674;23.284;2024-03-23T13:00:01;7.75;;;1.90;;
30818;SDS011;17546;42.674;23.284;2024-03-23T13:02:28;12.57;;;1.75;;
30818;SDS011;17546;42.674;23.284;2024-03-23T13:04:54;7.20;;;1.70;;
30818;SDS011;17546;42.674;23.284;2024-03-23T13:07:20;4.95;;;1.88;;
30818;SDS011;17546;42.674;23.284;2024-03-23T13:09:47;10.15;;;1.90;;
30818;SDS011;17546;42.674;23.284;2024-03-23T13:12:15;2.35;;;1.65;;
30818;SDS011;17546;42.674;23.284;2024-03-23T13:14:40;5.03;;;1.90;;
30818;SDS011;17546;42.674;23.284;2024-03-23T13:17:07;6.97;;;1.90;;
30818;SDS011;17546;42.674;23.284;2024-03-23T13:19:33;3.92;;;1.70;;
30818;SDS011;17546;42.674;23.284;2024-03-23T13:21:59;6.30;;;1.67;;
30818;SDS011;17546;42.674;23.284;2024-03-23T13:24:25;7.50;;;3.28;;
30818;SDS011;17546;42.674;23.284;2024-03-23T13:26:52;2.97;;;1.50;;
30818;SDS011;17546;42.674;23.284;2024-03-23T13:29:18;2.92;;;1.38;;
30818;SDS011;17546;42.674;23.284;2024-03-23T13:31:45;31.17;;;2.25;;
30818;SDS011;17546;42.674;23.284;2024-03-23T13:34:11;1.80;;;1.33;;
30818;SDS011;17546;42.674;23.284;2024-03-23T13:36:38;2.65;;;1.52;;
30818;SDS011;17546;42.674;23.284;2024-03-23T13:39:03;3.05;;;1.67;;
30818;SDS011;17546;42.674;23.284;2024-03-23T13:41:36;2.30;;;1.05;;
30818;SDS011;17546;42.674;23.284;2024-03-23T13:44:02;3.30;;;1.50;;
30818;SDS011;17546;42.674;23.284;2024-03-23T13:46:28;6.82;;;1.70;;
30818;SDS011;17546;42.674;23.284;2024-03-23T13:48:54;7.43;;;2.13;;
30818;SDS011;17546;42.674;23.284;2024-03-23T13:51:22;6.03;;;2.28;;
30818;SDS011;17546;42.674;23.284;2024-03-23T13:53:55;7.90;;;2.38;;
30818;SDS011;17546;42.674;23.284;2024-03-23T13:56:22;5.07;;;2.10;;
30818;SDS011;17546;42.674;23.284;2024-03-23T13:58:47;4.75;;;2.30;;
30818;SDS011;17546;42.674;23.284;2024-03-23T14:01:14;4.90;;;1.85;;
30818;SDS011;17546;42.674;23.284;2024-03-23T14:03:40;4.50;;;2.13;;
30818;SDS011;17546;42.674;23.284;2024-03-23T14:06:06;8.82;;;2.20;;
30818;SDS011;17546;42.674;23.284;2024-03-23T14:08:33;5.47;;;2.20;;
30818;SDS011;17546;42.674;23.284;2024-03-23T14:11:01;7.32;;;2.33;;
30818;SDS011;17546;42.674;23.284;2024-03-23T14:13:29;8.85;;;2.22;;
30818;SDS011;17546;42.674;23.284;2024-03-23T14:15:55;4.57;;;2.08;;
30818;SDS011;17546;42.674;23.284;2024-03-23T14:18:21;6.93;;;2.42;;
30818;SDS011;17546;42.674;23.284;2024-03-23T14:20:50;4.20;;;2.30;;
30818;SDS011;17546;42.674;23.284;2024-03-23T14:23:16;6.95;;;2.40;;
30818;SDS011;17546;42.674;23.284;2024-03-23T14:25:42;5.10;;;2.20;;
30818;SDS011;17546;42.674;23.284;2024-03-23T14:28:07;6.78;;;2.30;;
30818;SDS011;17546;42.674;23.284;2024-03-23T14:30:39;8.82;;;2.95;;
30818;SDS011;17546;42.674;23.284;2024-03-23T14:33:05;9.68;;;2.88;;
30818;SDS011;17546;42.674;23.284;2024-03-23T14:35:30;11.43;;;3.10;;
30818;SDS011;17546;42.674;23.284;2024-03-23T14:37:58;6.75;;;2.70;;
30818;SDS011;17546;42.674;23.284;2024-03-23T14:40:23;8.73;;;3.08;;
30818;SDS011;17546;42.674;23.284;2024-03-23T14:42:51;11.85;;;2.90;;
30818;SDS011;17546;42.674;23.284;2024-03-23T14:45:17;14.45;;;2.85;;
30818;SDS011;17546;42.674;23.284;2024-03-23T14:47:42;4.13;;;3.00;;
30818;SDS011;17546;42.674;23.284;2024-03-23T14:50:08;15.55;;;3.05;;
30818;SDS011;17546;42.674;23.284;2024-03-23T14:52:36;10.05;;;3.20;;
30818;SDS011;17546;42.674;23.284;2024-03-23T14:55:02;9.32;;;3.35;;
30818;SDS011;17546;42.674;23.284;2024-03-23T14:57:28;8.77;;;3.30;;
30818;SDS011;17546;42.674;23.284;2024-03-23T14:59:54;7.88;;;3.30;;
30818;SDS011;17546;42.674;23.284;2024-03-23T15:02:20;9.00;;;3.25;;
30818;SDS011;17546;42.674;23.284;2024-03-23T15:04:45;4.78;;;2.90;;
30818;SDS011;17546;42.674;23.284;2024-03-23T15:07:11;10.23;;;3.15;;
30818;SDS011;17546;42.674;23.284;2024-03-23T15:09:36;6.05;;;3.25;;
30818;SDS011;17546;42.674;23.284;2024-03-23T15:12:02;9.30;;;3.40;;
30818;SDS011;17546;42.674;23.284;2024-03-23T15:14:27;7.05;;;3.40;;
30818;SDS011;17546;42.674;23.284;2024-03-23T15:16:53;8.48;;;2.85;;
30818;SDS011;17546;42.674;23.284;2024-03-23T15:19:19;11.02;;;3.00;;
30818;SDS011;17546;42.674;23.284;2024-03-23T15:21:44;5.13;;;2.85;;
30818;SDS011;17546;42.674;23.284;2024-03-23T15:24:10;5.13;;;3.20;;
30818;SDS011;17546;42.674;23.284;2024-03-23T15:26:38;7.40;;;3.13;;
30818;SDS011;17546;42.674;23.284;2024-03-23T15:29:04;5.43;;;2.90;;
30818;SDS011;17546;42.674;23.284;2024-03-23T15:31:41;4.00;;;2.60;;
30818;SDS011;17546;42.674;23.284;2024-03-23T15:34:07;11.85;;;3.10;;
30818;SDS011;17546;42.674;23.284;2024-03-23T15:36:35;6.47;;;3.10;;
30818;SDS011;17546;42.674;23.284;2024-03-23T15:39:03;5.85;;;3.25;;
30818;SDS011;17546;42.674;23.284;2024-03-23T15:41:29;10.07;;;3.05;;
30818;SDS011;17546;42.674;23.284;2024-03-23T15:43:56;10.73;;;3.92;;
30818;SDS011;17546;42.674;23.284;2024-03-23T15:46:21;6.38;;;3.33;;
30818;SDS011;17546;42.674;23.284;2024-03-23T15:48:47;11.18;;;3.47;;
30818;SDS011;17546;42.674;23.284;2024-03-23T15:51:13;8.48;;;3.25;;
30818;SDS011;17546;42.674;23.284;2024-03-23T15:53:39;10.93;;;3.63;;